sensor_id;sensor_type;location;lat;lon;timestamp;P1;durP1;ratioP1;P2;durP2;ratioP2
13897;SDS011;7019;50.766;4.474;2024-03-06T00:00:01;9.00;;;6.83;;
13897;SDS011;7019;50.766;4.474;2024-03-06T00:02:29;10.33;;;7.30;;
13897;SDS011;7019;50.766;4.474;2024-03-06T00:04:56;11.40;;;8.03;;
13897;SDS011;7019;50.766;4.474;2024-03-06T00:07:24;15.53;;;10.20;;
13897;SDS011;7019;50.766;4.474;2024-03-06T00:09:51;17.67;;;10.10;;
13897;SDS011;7019;50.766;4.474;2024-03-06T00:12:20;16.37;;;10.93;;
13897;SDS011;7019;50.766;4.474;2024-03-06T00:14:47;11.37;;;8.27;;
13897;SDS011;7019;50.766;4.474;2024-03-06T00:17:14;13.37;;;8.80;;
13897;SDS011;7019;50.766;4.474;2024-03-06T00:19:41;13.87;;;8.17;;
13897;SDS011;7019;50.766;4.474;2024-03-06T00:22:09;10.57;;;8.30;;
13897;SDS011;7019;50.766;4.474;2024-03-06T00:24:36;10.70;;;7.63;;
13897;SDS011;7019;50.766;4.474;2024-03-06T00:27:03;11.27;;;7.03;;
13897;SDS011;7019;50.766;4.474;2024-03-06T00:29:32;12.03;;;8.03;;
13897;SDS011;7019;50.766;4.474;2024-03-06T00:32:01;12.30;;;8.90;;
13897;SDS011;7019;50.766;4.474;2024-03-06T00:34:28;12.63;;;9.20;;
13897;SDS011;7019;50.766;4.474;2024-03-06T00:36:55;15.83;;;9.97;;
13897;SDS011;7019;50.766;4.474;2024-03-06T00:39:23;12.87;;;9.40;;
13897;SDS011;7019;50.766;4.474;2024-03-06T00:41:51;14.77;;;10.00;;
13897;SDS011;7019;50.766;4.474;2024-03-06T00:44:18;13.00;;;9.37;;
13897;SDS011;7019;50.766;4.474;2024-03-06T00:46:46;17.40;;;9.40;;
13897;SDS011;7019;50.766;4.474;2024-03-06T00:49:14;14.00;;;9.03;;
13897;SDS011;7019;50.766;4.474;2024-03-06T00:51:41;9.27;;;7.70;;
13897;SDS011;7019;50.766;4.474;2024-03-06T00:54:08;9.70;;;7.87;;
13897;SDS011;7019;50.766;4.474;2024-03-06T00:56:36;10.97;;;8.30;;
13897;SDS011;7019;50.766;4.474;2024-03-06T00:59:04;10.80;;;7.77;;
13897;SDS011;7019;50.766;4.474;2024-03-06T01:01:31;10.50;;;7.70;;
13897;SDS011;7019;50.766;4.474;2024-03-06T01:04:00;15.20;;;8.73;;
13897;SDS011;7019;50.766;4.474;2024-03-06T01:06:27;10.30;;;8.00;;
13897;SDS011;7019;50.766;4.474;2024-03-06T01:08:54;11.17;;;8.67;;
13897;SDS011;7019;50.766;4.474;2024-03-06T01:11:22;10.27;;;7.77;;
13897;SDS011;7019;50.766;4.474;2024-03-06T01:13:49;11.17;;;8.47;;
13897;SDS011;7019;50.766;4.474;2024-03-06T01:16:16;12.00;;;9.27;;
13897;SDS011;7019;50.766;4.474;2024-03-06T01:18:43;14.37;;;8.57;;
13897;SDS011;7019;50.766;4.474;2024-03-06T01:21:11;12.70;;;8.63;;
13897;SDS011;7019;50.766;4.474;2024-03-06T01:23:38;12.10;;;9.00;;
13897;SDS011;7019;50.766;4.474;2024-03-06T01:26:05;16.63;;;9.40;;
13897;SDS011;7019;50.766;4.474;2024-03-06T01:28:32;13.43;;;8.87;;
13897;SDS011;7019;50.766;4.474;2024-03-06T01:30:59;11.00;;;8.27;;
13897;SDS011;7019;50.766;4.474;2024-03-06T01:33:26;11.80;;;7.83;;
13897;SDS011;7019;50.766;4.474;2024-03-06T01:35:53;14.00;;;8.83;;
13897;SDS011;7019;50.766;4.474;2024-03-06T01:38:22;12.47;;;8.03;;
13897;SDS011;7019;50.766;4.474;2024-03-06T01:40:49;12.10;;;8.23;;
13897;SDS011;7019;50.766;4.474;2024-03-06T01:43:19;14.07;;;8.20;;
13897;SDS011;7019;50.766;4.474;2024-03-06T01:45:47;10.27;;;7.60;;
13897;SDS011;7019;50.766;4.474;2024-03-06T01:48:15;11.67;;;8.37;;
13897;SDS011;7019;50.766;4.474;2024-03-06T01:50:43;11.30;;;8.10;;
13897;SDS011;7019;50.766;4.474;2024-03-06T01:53:10;14.03;;;8.60;;
13897;SDS011;7019;50.766;4.474;2024-03-06T01:55:42;13.43;;;8.13;;
13897;SDS011;7019;50.766;4.474;2024-03-06T01:58:09;14.10;;;8.30;;
13897;SDS011;7019;50.766;4.474;2024-03-06T02:00:36;12.77;;;7.43;;
13897;SDS011;7019;50.766;4.474;2024-03-06T02:03:04;13.67;;;8.23;;
13897;SDS011;7019;50.766;4.474;2024-03-06T02:05:32;13.03;;;7.60;;
13897;SDS011;7019;50.766;4.474;2024-03-06T02:07:59;10.97;;;7.40;;
13897;SDS011;7019;50.766;4.474;2024-03-06T02:10:27;13.27;;;8.10;;
13897;SDS011;7019;50.766;4.474;2024-03-06T02:12:56;11.90;;;8.07;;
13897;SDS011;7019;50.766;4.474;2024-03-06T02:15:23;11.13;;;7.53;;
13897;SDS011;7019;50.766;4.474;2024-03-06T02:17:50;12.80;;;7.40;;
13897;SDS011;7019;50.766;4.474;2024-03-06T02:20:22;9.87;;;6.87;;
13897;SDS011;7019;50.766;4.474;2024-03-06T02:22:50;12.77;;;7.83;;
13897;SDS011;7019;50.766;4.474;2024-03-06T02:25:17;15.20;;;8.67;;
13897;SDS011;7019;50.766;4.474;2024-03-06T02:27:45;18.77;;;10.77;;
13897;SDS011;7019;50.766;4.474;2024-03-06T02:30:13;14.97;;;8.53;;
13897;SDS011;7019;50.766;4.474;2024-03-06T02:32:40;15.97;;;9.60;;
13897;SDS011;7019;50.766;4.474;2024-03-06T02:35:08;13.13;;;8.83;;
13897;SDS011;7019;50.766;4.474;2024-03-06T02:37:37;11.63;;;8.63;;
13897;SDS011;7019;50.766;4.474;2024-03-06T02:40:05;13.43;;;8.83;;
13897;SDS011;7019;50.766;4.474;2024-03-06T02:42:35;12.17;;;7.77;;
13897;SDS011;7019;50.766;4.474;2024-03-06T02:45:04;10.97;;;7.97;;
13897;SDS011;7019;50.766;4.474;2024-03-06T02:47:32;14.23;;;8.10;;
13897;SDS011;7019;50.766;4.474;2024-03-06T02:49:59;11.27;;;7.70;;
13897;SDS011;7019;50.766;4.474;2024-03-06T02:52:26;10.87;;;8.07;;
13897;SDS011;7019;50.766;4.474;2024-03-06T02:54:54;9.83;;;7.40;;
13897;SDS011;7019;50.766;4.474;2024-03-06T02:57:22;13.33;;;8.20;;
13897;SDS011;7019;50.766;4.474;2024-03-06T02:59:49;11.50;;;7.50;;
13897;SDS011;7019;50.766;4.474;2024-03-06T03:02:16;12.67;;;8.00;;
13897;SDS011;7019;50.766;4.474;2024-03-06T03:04:43;13.47;;;8.70;;
13897;SDS011;7019;50.766;4.474;2024-03-06T03:07:10;13.00;;;7.63;;
13897;SDS011;7019;50.766;4.474;2024-03-06T03:09:37;11.67;;;7.80;;
13897;SDS011;7019;50.766;4.474;2024-03-06T03:12:06;12.90;;;7.00;;
13897;SDS011;7019;50.766;4.474;2024-03-06T03:14:33;13.40;;;7.40;;
13897;SDS011;7019;50.766;4.474;2024-03-06T03:17:00;15.33;;;8.33;;
13897;SDS011;7019;50.766;4.474;2024-03-06T03:19:27;10.23;;;7.97;;
13897;SDS011;7019;50.766;4.474;2024-03-06T03:21:55;13.93;;;8.53;;
13897;SDS011;7019;50.766;4.474;2024-03-06T03:24:23;10.57;;;8.00;;
13897;SDS011;7019;50.766;4.474;2024-03-06T03:26:51;12.23;;;7.47;;
13897;SDS011;7019;50.766;4.474;2024-03-06T03:29:19;14.53;;;8.20;;
13897;SDS011;7019;50.766;4.474;2024-03-06T03:31:47;15.10;;;8.23;;
13897;SDS011;7019;50.766;4.474;2024-03-06T03:34:14;19.17;;;10.97;;
13897;SDS011;7019;50.766;4.474;2024-03-06T03:36:41;18.63;;;10.50;;
13897;SDS011;7019;50.766;4.474;2024-03-06T03:39:09;15.80;;;10.93;;
13897;SDS011;7019;50.766;4.474;2024-03-06T03:41:44;15.50;;;9.50;;
13897;SDS011;7019;50.766;4.474;2024-03-06T03:44:11;13.23;;;9.30;;
13897;SDS011;7019;50.766;4.474;2024-03-06T03:46:40;21.77;;;12.30;;
13897;SDS011;7019;50.766;4.474;2024-03-06T03:49:07;15.53;;;9.17;;
13897;SDS011;7019;50.766;4.474;2024-03-06T03:51:35;12.60;;;9.37;;
13897;SDS011;7019;50.766;4.474;2024-03-06T03:54:02;17.90;;;10.10;;
13897;SDS011;7019;50.766;4.474;2024-03-06T03:56:29;13.30;;;9.83;;
13897;SDS011;7019;50.766;4.474;2024-03-06T03:58:57;13.30;;;9.43;;
13897;SDS011;7019;50.766;4.474;2024-03-06T04:01:24;17.43;;;10.80;;
13897;SDS011;7019;50.766;4.474;2024-03-06T04:03:53;15.00;;;10.17;;
13897;SDS011;7019;50.766;4.474;2024-03-06T04:06:20;16.03;;;10.63;;
13897;SDS011;7019;50.766;4.474;2024-03-06T04:08:47;14.67;;;10.10;;
13897;SDS011;7019;50.766;4.474;2024-03-06T04:11:14;15.63;;;9.83;;
13897;SDS011;7019;50.766;4.474;2024-03-06T04:13:42;15.43;;;9.07;;
13897;SDS011;7019;50.766;4.474;2024-03-06T04:16:09;13.47;;;8.77;;
13897;SDS011;7019;50.766;4.474;2024-03-06T04:18:36;13.70;;;9.17;;
13897;SDS011;7019;50.766;4.474;2024-03-06T04:21:05;15.63;;;9.37;;
13897;SDS011;7019;50.766;4.474;2024-03-06T04:23:33;15.93;;;9.80;;
13897;SDS011;7019;50.766;4.474;2024-03-06T04:26:00;13.57;;;9.53;;
13897;SDS011;7019;50.766;4.474;2024-03-06T04:28:28;20.03;;;12.33;;
13897;SDS011;7019;50.766;4.474;2024-03-06T04:30:55;16.20;;;9.93;;
13897;SDS011;7019;50.766;4.474;2024-03-06T04:33:23;13.67;;;9.40;;
13897;SDS011;7019;50.766;4.474;2024-03-06T04:35:50;16.63;;;9.43;;
13897;SDS011;7019;50.766;4.474;2024-03-06T04:38:18;17.27;;;9.90;;
13897;SDS011;7019;50.766;4.474;2024-03-06T04:40:46;11.87;;;8.87;;
13897;SDS011;7019;50.766;4.474;2024-03-06T04:43:13;12.53;;;9.37;;
13897;SDS011;7019;50.766;4.474;2024-03-06T04:45:40;17.50;;;11.30;;
13897;SDS011;7019;50.766;4.474;2024-03-06T04:48:07;16.57;;;10.43;;
13897;SDS011;7019;50.766;4.474;2024-03-06T04:50:34;17.77;;;11.10;;
13897;SDS011;7019;50.766;4.474;2024-03-06T04:53:04;20.60;;;11.53;;
13897;SDS011;7019;50.766;4.474;2024-03-06T04:55:32;22.37;;;11.47;;
13897;SDS011;7019;50.766;4.474;2024-03-06T04:58:02;19.93;;;11.50;;
13897;SDS011;7019;50.766;4.474;2024-03-06T05:00:29;16.83;;;10.23;;
13897;SDS011;7019;50.766;4.474;2024-03-06T05:02:57;17.87;;;11.27;;
13897;SDS011;7019;50.766;4.474;2024-03-06T05:05:24;19.10;;;11.67;;
13897;SDS011;7019;50.766;4.474;2024-03-06T05:07:52;21.63;;;13.03;;
13897;SDS011;7019;50.766;4.474;2024-03-06T05:10:19;20.97;;;12.50;;
13897;SDS011;7019;50.766;4.474;2024-03-06T05:12:47;22.57;;;14.73;;
13897;SDS011;7019;50.766;4.474;2024-03-06T05:15:15;25.20;;;14.40;;
13897;SDS011;7019;50.766;4.474;2024-03-06T05:17:44;27.07;;;16.93;;
13897;SDS011;7019;50.766;4.474;2024-03-06T05:20:11;27.83;;;16.93;;
13897;SDS011;7019;50.766;4.474;2024-03-06T05:22:39;25.50;;;16.73;;
13897;SDS011;7019;50.766;4.474;2024-03-06T05:25:06;26.73;;;15.63;;
13897;SDS011;7019;50.766;4.474;2024-03-06T05:27:33;22.13;;;15.00;;
13897;SDS011;7019;50.766;4.474;2024-03-06T05:30:02;21.57;;;13.90;;
13897;SDS011;7019;50.766;4.474;2024-03-06T05:32:30;37.73;;;21.93;;
13897;SDS011;7019;50.766;4.474;2024-03-06T05:34:57;25.13;;;16.90;;
13897;SDS011;7019;50.766;4.474;2024-03-06T05:37:24;25.93;;;16.57;;
13897;SDS011;7019;50.766;4.474;2024-03-06T05:39:51;26.50;;;16.77;;
13897;SDS011;7019;50.766;4.474;2024-03-06T05:42:19;24.53;;;16.00;;
13897;SDS011;7019;50.766;4.474;2024-03-06T05:44:46;23.90;;;16.50;;
13897;SDS011;7019;50.766;4.474;2024-03-06T05:47:15;33.53;;;18.17;;
13897;SDS011;7019;50.766;4.474;2024-03-06T05:49:42;22.90;;;16.40;;
13897;SDS011;7019;50.766;4.474;2024-03-06T05:52:09;30.30;;;18.10;;
13897;SDS011;7019;50.766;4.474;2024-03-06T05:54:36;24.53;;;16.00;;
13897;SDS011;7019;50.766;4.474;2024-03-06T05:57:04;22.90;;;14.57;;
13897;SDS011;7019;50.766;4.474;2024-03-06T05:59:32;29.60;;;17.73;;
13897;SDS011;7019;50.766;4.474;2024-03-06T06:01:59;27.87;;;15.17;;
13897;SDS011;7019;50.766;4.474;2024-03-06T06:04:27;22.00;;;14.43;;
13897;SDS011;7019;50.766;4.474;2024-03-06T06:06:54;22.73;;;14.30;;
13897;SDS011;7019;50.766;4.474;2024-03-06T06:09:21;20.27;;;12.80;;
13897;SDS011;7019;50.766;4.474;2024-03-06T06:11:48;21.03;;;12.93;;
13897;SDS011;7019;50.766;4.474;2024-03-06T06:14:15;24.10;;;13.43;;
13897;SDS011;7019;50.766;4.474;2024-03-06T06:16:42;20.17;;;12.67;;
13897;SDS011;7019;50.766;4.474;2024-03-06T06:19:09;21.07;;;12.97;;
13897;SDS011;7019;50.766;4.474;2024-03-06T06:21:38;21.13;;;12.90;;
13897;SDS011;7019;50.766;4.474;2024-03-06T06:24:05;23.97;;;12.63;;
13897;SDS011;7019;50.766;4.474;2024-03-06T06:26:33;24.90;;;13.37;;
13897;SDS011;7019;50.766;4.474;2024-03-06T06:29:00;19.57;;;12.93;;
13897;SDS011;7019;50.766;4.474;2024-03-06T06:31:27;18.93;;;11.53;;
13897;SDS011;7019;50.766;4.474;2024-03-06T06:33:54;26.17;;;13.13;;
13897;SDS011;7019;50.766;4.474;2024-03-06T06:36:22;21.33;;;12.53;;
13897;SDS011;7019;50.766;4.474;2024-03-06T06:38:51;20.70;;;12.07;;
13897;SDS011;7019;50.766;4.474;2024-03-06T06:41:19;24.77;;;13.03;;
13897;SDS011;7019;50.766;4.474;2024-03-06T06:43:46;19.50;;;12.50;;
13897;SDS011;7019;50.766;4.474;2024-03-06T06:46:13;20.03;;;12.40;;
13897;SDS011;7019;50.766;4.474;2024-03-06T06:48:41;21.37;;;13.23;;
13897;SDS011;7019;50.766;4.474;2024-03-06T06:51:08;23.30;;;13.27;;
13897;SDS011;7019;50.766;4.474;2024-03-06T06:53:35;25.80;;;13.60;;
13897;SDS011;7019;50.766;4.474;2024-03-06T06:56:06;20.80;;;13.07;;
13897;SDS011;7019;50.766;4.474;2024-03-06T06:58:34;19.30;;;12.63;;
13897;SDS011;7019;50.766;4.474;2024-03-06T07:01:01;22.10;;;12.83;;
13897;SDS011;7019;50.766;4.474;2024-03-06T07:03:29;20.47;;;13.13;;
13897;SDS011;7019;50.766;4.474;2024-03-06T07:05:56;21.37;;;13.80;;
13897;SDS011;7019;50.766;4.474;2024-03-06T07:08:23;25.03;;;13.57;;
13897;SDS011;7019;50.766;4.474;2024-03-06T07:10:50;21.87;;;13.43;;
13897;SDS011;7019;50.766;4.474;2024-03-06T07:13:20;23.30;;;14.17;;
13897;SDS011;7019;50.766;4.474;2024-03-06T07:15:47;24.03;;;14.30;;
13897;SDS011;7019;50.766;4.474;2024-03-06T07:18:14;26.20;;;14.07;;
13897;SDS011;7019;50.766;4.474;2024-03-06T07:20:41;22.30;;;13.93;;
13897;SDS011;7019;50.766;4.474;2024-03-06T07:23:08;18.17;;;12.83;;
13897;SDS011;7019;50.766;4.474;2024-03-06T07:25:35;19.20;;;13.17;;
13897;SDS011;7019;50.766;4.474;2024-03-06T07:28:02;16.93;;;12.80;;
13897;SDS011;7019;50.766;4.474;2024-03-06T07:30:31;16.50;;;12.33;;
13897;SDS011;7019;50.766;4.474;2024-03-06T07:32:58;14.93;;;11.33;;
13897;SDS011;7019;50.766;4.474;2024-03-06T07:35:25;15.77;;;10.53;;
13897;SDS011;7019;50.766;4.474;2024-03-06T07:37:52;17.30;;;10.30;;
13897;SDS011;7019;50.766;4.474;2024-03-06T07:40:19;10.60;;;9.40;;
13897;SDS011;7019;50.766;4.474;2024-03-06T07:42:47;12.70;;;9.37;;
13897;SDS011;7019;50.766;4.474;2024-03-06T07:45:14;9.77;;;8.27;;
13897;SDS011;7019;50.766;4.474;2024-03-06T07:47:42;11.60;;;8.57;;
13897;SDS011;7019;50.766;4.474;2024-03-06T07:50:10;12.60;;;9.13;;
13897;SDS011;7019;50.766;4.474;2024-03-06T07:52:37;13.00;;;8.83;;
13897;SDS011;7019;50.766;4.474;2024-03-06T07:55:05;9.80;;;8.10;;
13897;SDS011;7019;50.766;4.474;2024-03-06T07:57:32;10.83;;;7.73;;
13897;SDS011;7019;50.766;4.474;2024-03-06T07:59:59;9.17;;;7.27;;
13897;SDS011;7019;50.766;4.474;2024-03-06T08:02:33;12.20;;;8.33;;
13897;SDS011;7019;50.766;4.474;2024-03-06T08:05:04;13.10;;;8.37;;
13897;SDS011;7019;50.766;4.474;2024-03-06T08:07:35;9.10;;;7.43;;
13897;SDS011;7019;50.766;4.474;2024-03-06T08:10:02;11.33;;;8.63;;
13897;SDS011;7019;50.766;4.474;2024-03-06T08:12:30;8.40;;;7.20;;
13897;SDS011;7019;50.766;4.474;2024-03-06T08:14:58;10.17;;;7.83;;
13897;SDS011;7019;50.766;4.474;2024-03-06T08:17:25;10.87;;;7.70;;
13897;SDS011;7019;50.766;4.474;2024-03-06T08:19:52;11.10;;;7.70;;
13897;SDS011;7019;50.766;4.474;2024-03-06T08:22:21;9.33;;;6.27;;
13897;SDS011;7019;50.766;4.474;2024-03-06T08:24:48;10.67;;;6.17;;
13897;SDS011;7019;50.766;4.474;2024-03-06T08:27:16;10.37;;;5.93;;
13897;SDS011;7019;50.766;4.474;2024-03-06T08:29:44;11.33;;;5.33;;
13897;SDS011;7019;50.766;4.474;2024-03-06T08:32:11;7.00;;;4.70;;
13897;SDS011;7019;50.766;4.474;2024-03-06T08:34:38;8.63;;;4.87;;
13897;SDS011;7019;50.766;4.474;2024-03-06T08:37:05;7.33;;;5.10;;
13897;SDS011;7019;50.766;4.474;2024-03-06T08:39:33;5.73;;;4.90;;
13897;SDS011;7019;50.766;4.474;2024-03-06T08:42:00;6.57;;;5.57;;
13897;SDS011;7019;50.766;4.474;2024-03-06T08:44:28;7.77;;;4.83;;
13897;SDS011;7019;50.766;4.474;2024-03-06T08:46:55;8.73;;;5.47;;
13897;SDS011;7019;50.766;4.474;2024-03-06T08:49:22;7.67;;;5.67;;
13897;SDS011;7019;50.766;4.474;2024-03-06T08:51:50;7.23;;;5.03;;
13897;SDS011;7019;50.766;4.474;2024-03-06T08:54:17;6.73;;;4.83;;
13897;SDS011;7019;50.766;4.474;2024-03-06T08:56:45;6.63;;;4.87;;
13897;SDS011;7019;50.766;4.474;2024-03-06T08:59:12;8.70;;;5.37;;
13897;SDS011;7019;50.766;4.474;2024-03-06T09:01:40;9.93;;;5.00;;
13897;SDS011;7019;50.766;4.474;2024-03-06T09:04:07;10.30;;;5.73;;
13897;SDS011;7019;50.766;4.474;2024-03-06T09:06:34;6.07;;;5.00;;
13897;SDS011;7019;50.766;4.474;2024-03-06T09:09:01;6.20;;;5.40;;
13897;SDS011;7019;50.766;4.474;2024-03-06T09:11:30;7.40;;;5.50;;
13897;SDS011;7019;50.766;4.474;2024-03-06T09:13:59;8.17;;;5.73;;
13897;SDS011;7019;50.766;4.474;2024-03-06T09:16:26;11.13;;;5.33;;
13897;SDS011;7019;50.766;4.474;2024-03-06T09:18:53;9.07;;;5.90;;
13897;SDS011;7019;50.766;4.474;2024-03-06T09:21:20;8.90;;;5.23;;
13897;SDS011;7019;50.766;4.474;2024-03-06T09:23:47;9.13;;;5.17;;
13897;SDS011;7019;50.766;4.474;2024-03-06T09:26:16;6.33;;;5.53;;
13897;SDS011;7019;50.766;4.474;2024-03-06T09:28:43;6.47;;;4.67;;
13897;SDS011;7019;50.766;4.474;2024-03-06T09:31:12;9.50;;;5.73;;
13897;SDS011;7019;50.766;4.474;2024-03-06T09:33:39;7.03;;;5.50;;
13897;SDS011;7019;50.766;4.474;2024-03-06T09:36:06;8.70;;;5.20;;
13897;SDS011;7019;50.766;4.474;2024-03-06T09:38:38;8.87;;;5.33;;
13897;SDS011;7019;50.766;4.474;2024-03-06T09:41:05;6.83;;;4.60;;
13897;SDS011;7019;50.766;4.474;2024-03-06T09:43:33;8.43;;;5.33;;
13897;SDS011;7019;50.766;4.474;2024-03-06T09:46:00;8.93;;;5.13;;
13897;SDS011;7019;50.766;4.474;2024-03-06T09:48:30;7.87;;;4.70;;
13897;SDS011;7019;50.766;4.474;2024-03-06T09:51:00;8.97;;;5.17;;
13897;SDS011;7019;50.766;4.474;2024-03-06T09:53:28;9.00;;;4.60;;
13897;SDS011;7019;50.766;4.474;2024-03-06T09:55:56;5.93;;;4.27;;
13897;SDS011;7019;50.766;4.474;2024-03-06T09:58:25;6.40;;;3.47;;
13897;SDS011;7019;50.766;4.474;2024-03-06T10:00:52;6.10;;;2.70;;
13897;SDS011;7019;50.766;4.474;2024-03-06T10:03:21;4.97;;;3.10;;
13897;SDS011;7019;50.766;4.474;2024-03-06T10:05:49;4.93;;;3.10;;
13897;SDS011;7019;50.766;4.474;2024-03-06T10:08:16;9.40;;;2.73;;
13897;SDS011;7019;50.766;4.474;2024-03-06T10:10:47;5.53;;;2.00;;
13897;SDS011;7019;50.766;4.474;2024-03-06T10:13:15;5.13;;;2.50;;
13897;SDS011;7019;50.766;4.474;2024-03-06T10:15:48;5.50;;;2.70;;
13897;SDS011;7019;50.766;4.474;2024-03-06T10:18:23;5.80;;;2.87;;
13897;SDS011;7019;50.766;4.474;2024-03-06T10:20:54;4.27;;;2.20;;
13897;SDS011;7019;50.766;4.474;2024-03-06T10:23:22;3.70;;;2.43;;
13897;SDS011;7019;50.766;4.474;2024-03-06T10:25:50;5.03;;;2.47;;
13897;SDS011;7019;50.766;4.474;2024-03-06T10:28:18;5.20;;;2.30;;
13897;SDS011;7019;50.766;4.474;2024-03-06T10:30:47;6.13;;;2.60;;
13897;SDS011;7019;50.766;4.474;2024-03-06T10:33:15;4.70;;;1.93;;
13897;SDS011;7019;50.766;4.474;2024-03-06T10:35:44;4.20;;;1.80;;
13897;SDS011;7019;50.766;4.474;2024-03-06T10:38:14;5.00;;;2.27;;
13897;SDS011;7019;50.766;4.474;2024-03-06T10:40:42;4.10;;;2.30;;
13897;SDS011;7019;50.766;4.474;2024-03-06T10:43:10;5.90;;;2.70;;
13897;SDS011;7019;50.766;4.474;2024-03-06T10:45:40;3.90;;;2.20;;
13897;SDS011;7019;50.766;4.474;2024-03-06T10:48:09;2.93;;;1.57;;
13897;SDS011;7019;50.766;4.474;2024-03-06T10:50:38;5.17;;;2.00;;
13897;SDS011;7019;50.766;4.474;2024-03-06T10:53:09;5.63;;;2.37;;
13897;SDS011;7019;50.766;4.474;2024-03-06T10:55:38;4.50;;;2.43;;
13897;SDS011;7019;50.766;4.474;2024-03-06T10:58:05;4.50;;;2.13;;
13897;SDS011;7019;50.766;4.474;2024-03-06T11:00:35;5.10;;;1.97;;
13897;SDS011;7019;50.766;4.474;2024-03-06T11:03:04;5.20;;;2.13;;
13897;SDS011;7019;50.766;4.474;2024-03-06T11:05:34;4.80;;;2.00;;
13897;SDS011;7019;50.766;4.474;2024-03-06T11:08:04;3.63;;;2.33;;
13897;SDS011;7019;50.766;4.474;2024-03-06T11:10:33;5.43;;;3.10;;
13897;SDS011;7019;50.766;4.474;2024-03-06T11:13:07;6.57;;;3.13;;
13897;SDS011;7019;50.766;4.474;2024-03-06T11:15:47;8.83;;;3.37;;
13897;SDS011;7019;50.766;4.474;2024-03-06T11:26:50;5.13;;;2.80;;
13897;SDS011;7019;50.766;4.474;2024-03-06T11:29:27;5.20;;;2.87;;
13897;SDS011;7019;50.766;4.474;2024-03-06T11:32:08;6.33;;;3.97;;
13897;SDS011;7019;50.766;4.474;2024-03-06T11:34:37;7.10;;;4.10;;
13897;SDS011;7019;50.766;4.474;2024-03-06T11:37:05;6.77;;;4.33;;
13897;SDS011;7019;50.766;4.474;2024-03-06T11:39:35;9.73;;;4.97;;
13897;SDS011;7019;50.766;4.474;2024-03-06T11:42:02;5.27;;;3.93;;
13897;SDS011;7019;50.766;4.474;2024-03-06T11:44:34;6.80;;;3.60;;
13897;SDS011;7019;50.766;4.474;2024-03-06T11:47:04;5.10;;;3.73;;
13897;SDS011;7019;50.766;4.474;2024-03-06T11:49:33;5.83;;;2.97;;
13897;SDS011;7019;50.766;4.474;2024-03-06T11:52:03;6.03;;;3.00;;
13897;SDS011;7019;50.766;4.474;2024-03-06T11:54:33;6.27;;;3.07;;
13897;SDS011;7019;50.766;4.474;2024-03-06T11:57:00;3.90;;;3.23;;
13897;SDS011;7019;50.766;4.474;2024-03-06T11:59:29;4.17;;;2.40;;
13897;SDS011;7019;50.766;4.474;2024-03-06T12:01:58;5.77;;;2.30;;
13897;SDS011;7019;50.766;4.474;2024-03-06T12:04:27;2.67;;;1.20;;
13897;SDS011;7019;50.766;4.474;2024-03-06T12:06:56;3.73;;;1.67;;
13897;SDS011;7019;50.766;4.474;2024-03-06T12:09:25;3.97;;;1.73;;
13897;SDS011;7019;50.766;4.474;2024-03-06T12:11:55;3.63;;;1.83;;
13897;SDS011;7019;50.766;4.474;2024-03-06T12:14:22;7.23;;;2.00;;
13897;SDS011;7019;50.766;4.474;2024-03-06T12:16:56;3.57;;;1.63;;
13897;SDS011;7019;50.766;4.474;2024-03-06T12:19:26;2.63;;;1.40;;
13897;SDS011;7019;50.766;4.474;2024-03-06T12:21:55;2.40;;;1.40;;
13897;SDS011;7019;50.766;4.474;2024-03-06T12:24:22;4.57;;;2.00;;
13897;SDS011;7019;50.766;4.474;2024-03-06T12:26:57;2.83;;;1.67;;
13897;SDS011;7019;50.766;4.474;2024-03-06T12:29:27;2.47;;;1.43;;
13897;SDS011;7019;50.766;4.474;2024-03-06T12:31:55;3.13;;;1.57;;
13897;SDS011;7019;50.766;4.474;2024-03-06T12:34:23;2.73;;;1.30;;
13897;SDS011;7019;50.766;4.474;2024-03-06T12:36:52;2.13;;;1.33;;
13897;SDS011;7019;50.766;4.474;2024-03-06T12:39:19;2.17;;;1.20;;
13897;SDS011;7019;50.766;4.474;2024-03-06T12:41:48;3.07;;;1.27;;
13897;SDS011;7019;50.766;4.474;2024-03-06T12:44:15;2.30;;;1.10;;
13897;SDS011;7019;50.766;4.474;2024-03-06T12:46:42;2.03;;;0.97;;
13897;SDS011;7019;50.766;4.474;2024-03-06T12:49:10;2.87;;;1.30;;
13897;SDS011;7019;50.766;4.474;2024-03-06T12:51:37;2.00;;;0.90;;
13897;SDS011;7019;50.766;4.474;2024-03-06T12:54:05;2.40;;;0.90;;
13897;SDS011;7019;50.766;4.474;2024-03-06T12:56:33;4.07;;;0.93;;
13897;SDS011;7019;50.766;4.474;2024-03-06T12:59:01;1.80;;;1.20;;
13897;SDS011;7019;50.766;4.474;2024-03-06T13:01:28;3.70;;;1.20;;
13897;SDS011;7019;50.766;4.474;2024-03-06T13:03:56;1.40;;;1.00;;
13897;SDS011;7019;50.766;4.474;2024-03-06T13:06:24;1.33;;;1.00;;
13897;SDS011;7019;50.766;4.474;2024-03-06T13:08:53;3.53;;;1.10;;
13897;SDS011;7019;50.766;4.474;2024-03-06T13:11:22;4.73;;;2.47;;
13897;SDS011;7019;50.766;4.474;2024-03-06T13:13:49;4.73;;;2.30;;
13897;SDS011;7019;50.766;4.474;2024-03-06T13:16:16;5.10;;;2.00;;
13897;SDS011;7019;50.766;4.474;2024-03-06T13:18:43;2.63;;;1.53;;
13897;SDS011;7019;50.766;4.474;2024-03-06T13:21:10;3.40;;;2.00;;
13897;SDS011;7019;50.766;4.474;2024-03-06T13:23:37;5.03;;;1.50;;
13897;SDS011;7019;50.766;4.474;2024-03-06T13:26:04;4.83;;;2.53;;
13897;SDS011;7019;50.766;4.474;2024-03-06T13:28:32;2.73;;;1.27;;
13897;SDS011;7019;50.766;4.474;2024-03-06T13:31:00;2.27;;;1.43;;
13897;SDS011;7019;50.766;4.474;2024-03-06T13:33:27;3.53;;;2.13;;
13897;SDS011;7019;50.766;4.474;2024-03-06T13:35:54;2.17;;;1.13;;
13897;SDS011;7019;50.766;4.474;2024-03-06T13:38:21;2.47;;;1.10;;
13897;SDS011;7019;50.766;4.474;2024-03-06T13:40:48;2.77;;;1.10;;
13897;SDS011;7019;50.766;4.474;2024-03-06T13:43:15;4.83;;;1.27;;
13897;SDS011;7019;50.766;4.474;2024-03-06T13:45:49;1.13;;;0.60;;
13897;SDS011;7019;50.766;4.474;2024-03-06T13:48:16;1.60;;;0.80;;
13897;SDS011;7019;50.766;4.474;2024-03-06T13:50:44;2.83;;;0.70;;
13897;SDS011;7019;50.766;4.474;2024-03-06T13:53:12;3.10;;;0.97;;
13897;SDS011;7019;50.766;4.474;2024-03-06T13:55:40;2.30;;;0.70;;
13897;SDS011;7019;50.766;4.474;2024-03-06T13:58:07;3.53;;;0.80;;
13897;SDS011;7019;50.766;4.474;2024-03-06T14:00:34;1.20;;;0.87;;
13897;SDS011;7019;50.766;4.474;2024-03-06T14:03:02;2.97;;;1.10;;
13897;SDS011;7019;50.766;4.474;2024-03-06T14:05:30;2.90;;;1.20;;
13897;SDS011;7019;50.766;4.474;2024-03-06T14:07:57;3.37;;;0.70;;
13897;SDS011;7019;50.766;4.474;2024-03-06T14:10:24;2.10;;;1.07;;
13897;SDS011;7019;50.766;4.474;2024-03-06T14:12:51;2.43;;;0.70;;
13897;SDS011;7019;50.766;4.474;2024-03-06T14:15:20;3.37;;;1.10;;
13897;SDS011;7019;50.766;4.474;2024-03-06T14:17:48;2.30;;;1.03;;
13897;SDS011;7019;50.766;4.474;2024-03-06T14:20:17;5.17;;;1.10;;
13897;SDS011;7019;50.766;4.474;2024-03-06T14:22:44;2.90;;;0.93;;
13897;SDS011;7019;50.766;4.474;2024-03-06T14:25:11;1.53;;;0.90;;
13897;SDS011;7019;50.766;4.474;2024-03-06T14:27:38;1.87;;;1.00;;
13897;SDS011;7019;50.766;4.474;2024-03-06T14:30:06;1.57;;;0.67;;
13897;SDS011;7019;50.766;4.474;2024-03-06T14:32:34;1.53;;;1.07;;
13897;SDS011;7019;50.766;4.474;2024-03-06T14:35:01;1.27;;;0.87;;
13897;SDS011;7019;50.766;4.474;2024-03-06T14:37:29;4.37;;;1.17;;
13897;SDS011;7019;50.766;4.474;2024-03-06T14:39:56;2.90;;;1.27;;
13897;SDS011;7019;50.766;4.474;2024-03-06T14:42:23;2.80;;;0.90;;
13897;SDS011;7019;50.766;4.474;2024-03-06T14:44:51;4.13;;;1.50;;
13897;SDS011;7019;50.766;4.474;2024-03-06T14:47:18;2.43;;;1.30;;
13897;SDS011;7019;50.766;4.474;2024-03-06T14:49:45;3.73;;;1.20;;
13897;SDS011;7019;50.766;4.474;2024-03-06T14:52:12;5.33;;;1.23;;
13897;SDS011;7019;50.766;4.474;2024-03-06T14:54:40;4.20;;;0.93;;
13897;SDS011;7019;50.766;4.474;2024-03-06T14:57:08;2.50;;;0.97;;
13897;SDS011;7019;50.766;4.474;2024-03-06T14:59:35;2.90;;;1.37;;
13897;SDS011;7019;50.766;4.474;2024-03-06T15:02:03;2.27;;;1.13;;